Time;durP1;ratioP1;P1;durP2;ratioP2;P2;SDS_P1;SDS_P2;PMS_P1;PMS_P2;Temp;Humidity;BMP_temperature;BMP_pressure;BME280_temperature;BME280_humidity;BME280_pressure;Samples;Min_cycle;Max_cycle;Signal;HPM_P1;HPM_P2
2022/04/19 00:00:15;;;;;;;3.50;2.10;;;;;;;8.15;81.98;99587.88;5041074;28;20098;-73
2022/04/19 00:02:40;;;;;;;12.88;3.55;;;;;;;8.16;81.98;99598.28;5040265;28;20087;-73
2022/04/19 00:05:09;;;;;;;14.35;4.43;;;;;;;8.10;83.14;99598.03;5039817;28;20053;-73
2022/04/19 00:07:35;;;;;;;6.07;2.88;;;;;;;8.08;82.17;99597.38;5041121;28;20100;-73
2022/04/19 00:10:00;;;;;;;3.85;2.40;;;;;;;8.06;83.00;99594.88;5041000;28;20338;-73
2022/04/19 00:12:26;;;;;;;2.22;1.98;;;;;;;8.17;82.09;99592.03;5039670;28;20309;-73
2022/04/19 00:14:51;;;;;;;3.42;2.53;;;;;;;8.21;82.52;99590.72;5037753;28;20243;-72
2022/04/19 00:17:16;;;;;;;3.08;2.40;;;;;;;8.23;81.60;99594.06;5038965;28;20036;-73
2022/04/19 00:19:42;;;;;;;3.90;2.40;;;;;;;8.20;81.57;99590.88;5039315;28;20039;-73
2022/04/19 00:22:07;;;;;;;4.55;2.75;;;;;;;8.27;81.14;99600.69;5038192;28;20088;-73
2022/04/19 00:24:33;;;;;;;6.30;3.03;;;;;;;8.22;81.88;99599.47;5039987;28;20045;-73
2022/04/19 00:26:58;;;;;;;4.70;2.97;;;;;;;8.19;82.31;99590.06;5040036;28;20040;-72
2022/04/19 00:29:24;;;;;;;82.22;15.68;;;;;;;8.18;81.62;99596.31;5040598;28;20108;-73
2022/04/19 00:31:49;;;;;;;74.32;14.07;;;;;;;8.19;81.41;99590.06;5039487;28;20332;-73
2022/04/19 00:34:16;;;;;;;53.20;12.68;;;;;;;8.14;81.24;99588.84;5030868;28;20037;-73
2022/04/19 00:36:41;;;;;;;62.67;11.93;;;;;;;8.07;82.47;99595.69;5040538;28;20294;-71
2022/04/19 00:39:07;;;;;;;50.10;10.70;;;;;;;8.06;82.32;99589.59;5038432;28;20037;-72
2022/04/19 00:41:33;;;;;;;36.17;9.40;;;;;;;8.06;82.49;99594.88;5039890;28;20472;-73
2022/04/19 00:43:58;;;;;;;19.65;5.70;;;;;;;8.01;83.02;99582.13;5039974;28;20047;-73
2022/04/19 00:46:24;;;;;;;29.77;7.40;;;;;;;8.08;82.60;99586.81;5038362;28;20353;-74
2022/04/19 00:48:52;;;;;;;11.55;4.38;;;;;;;8.09;83.45;99586.66;5039107;28;20104;-73
2022/04/19 00:51:19;;;;;;;6.40;2.95;;;;;;;8.06;83.50;99586.97;5039439;28;20021;-72
2022/04/19 00:53:47;;;;;;;5.80;3.38;;;;;;;8.08;83.63;99584.19;5038884;28;20044;-73
2022/04/19 00:56:12;;;;;;;4.85;2.85;;;;;;;8.00;83.09;99582.28;5039759;28;20322;-73
2022/04/19 00:58:38;;;;;;;6.97;3.38;;;;;;;7.96;83.84;99586.19;5039788;28;20052;-73
2022/04/19 01:01:03;;;;;;;4.63;2.42;;;;;;;7.97;83.44;99580.78;5036497;28;20029;-73
2022/04/19 01:03:29;;;;;;;3.22;2.35;;;;;;;7.92;83.91;99585.66;5039766;28;20084;-73
2022/04/19 01:05:55;;;;;;;4.65;2.20;;;;;;;7.85;83.90;99574.06;5038080;28;20228;-71
2022/04/19 01:08:23;;;;;;;6.65;2.30;;;;;;;7.87;83.85;99571.28;5038671;28;20029;-73
2022/04/19 01:10:48;;;;;;;4.47;2.30;;;;;;;7.78;83.92;99566.91;5039007;28;20037;-72
2022/04/19 01:13:18;;;;;;;2.30;2.00;;;;;;;7.83;84.67;99572.56;5038914;28;20150;-72
2022/04/19 01:15:47;;;;;;;3.38;2.28;;;;;;;7.91;83.72;99572.63;5039530;28;20238;-72
2022/04/19 01:18:20;;;;;;;2.75;2.00;;;;;;;7.75;85.33;99569.84;5038883;28;20061;-73
2022/04/19 01:20:48;;;;;;;2.40;2.20;;;;;;;7.62;85.85;99570.19;5037164;28;20369;-72
2022/04/19 01:23:14;;;;;;;3.30;2.33;;;;;;;7.59;86.84;99579.22;5035869;28;20025;-73
2022/04/19 01:25:40;;;;;;;3.67;2.60;;;;;;;7.62;87.32;99575.47;5039013;28;20061;-73
2022/04/19 01:28:06;;;;;;;3.78;2.53;;;;;;;7.67;87.08;99575.84;5039246;28;20163;-71
2022/04/19 01:30:35;;;;;;;13.32;5.35;;;;;;;7.69;87.17;99573.88;5037917;28;20026;-72
2022/04/19 01:33:02;;;;;;;4.85;2.33;;;;;;;7.76;86.55;99568.84;5039449;28;20025;-72
2022/04/19 01:35:27;;;;;;;2.47;2.05;;;;;;;7.85;84.57;99579.34;5037821;28;20044;-72
2022/04/19 01:37:53;;;;;;;2.53;2.33;;;;;;;7.77;84.61;99573.97;5053808;28;20311;-72
2022/04/19 01:40:18;;;;;;;3.70;2.38;;;;;;;7.69;84.54;99571.25;5043488;28;20331;-72
2022/04/19 01:42:53;;;;;;;4.10;2.10;;;;;;;7.66;85.30;99563.66;5042845;28;20057;-72
2022/04/19 01:45:24;;;;;;;4.72;2.10;;;;;;;7.76;83.55;99566.22;5042795;28;20037;-72
2022/04/19 01:47:51;;;;;;;4.95;2.28;;;;;;;7.61;84.32;99566.72;5041914;28;20395;-72
2022/04/19 01:50:18;;;;;;;3.67;2.35;;;;;;;7.68;84.61;99564.31;5043471;28;20076;-72
2022/04/19 01:52:45;;;;;;;2.78;2.20;;;;;;;7.55;84.29;99559.41;5041590;28;20037;-72
2022/04/19 01:55:13;;;;;;;3.95;2.55;;;;;;;7.63;85.12;99556.88;5040414;28;20036;-72
2022/04/19 01:57:43;;;;;;;6.07;2.40;;;;;;;7.76;83.33;99559.13;5040512;28;20026;-72
2022/04/19 02:00:09;;;;;;;3.83;2.33;;;;;;;7.71;83.78;99561.38;5042483;28;20087;-72
2022/04/19 02:02:35;;;;;;;2.90;2.30;;;;;;;7.59;84.26;99557.31;5041764;28;20033;-72
2022/04/19 02:05:01;;;;;;;2.80;2.03;;;;;;;7.48;85.26;99553.06;5042004;28;20092;-72
2022/04/19 02:07:26;;;;;;;3.20;2.50;;;;;;;7.55;85.15;99554.13;5040650;28;20173;-72
2022/04/19 02:09:52;;;;;;;4.22;2.13;;;;;;;7.48;86.22;99550.44;5041666;28;20333;-72
2022/04/19 02:12:17;;;;;;;5.70;2.13;;;;;;;7.52;85.51;99556.22;5041953;28;20061;-72
2022/04/19 02:14:43;;;;;;;2.78;2.30;;;;;;;7.54;85.91;99552.47;5039342;28;20092;-72
2022/04/19 02:17:09;;;;;;;4.63;2.00;;;;;;;7.57;85.66;99543.44;5042447;28;20075;-72
2022/04/19 02:19:38;;;;;;;4.40;2.40;;;;;;;7.48;85.73;99541.69;5041840;28;20045;-72
2022/04/19 02:22:09;;;;;;;4.55;1.98;;;;;;;7.57;85.05;99546.91;5041958;28;20061;-72
2022/04/19 02:24:35;;;;;;;2.97;1.88;;;;;;;7.64;85.40;99547.16;5042095;28;20040;-72
2022/04/19 02:27:01;;;;;;;3.08;2.00;;;;;;;7.72;85.28;99544.59;5042505;28;20033;-72
2022/04/19 02:29:27;;;;;;;3.00;1.80;;;;;;;7.68;84.91;99544.06;5042749;28;20056;-72
2022/04/19 02:31:53;;;;;;;2.22;2.03;;;;;;;7.82;83.93;99552.44;5041122;28;20132;-72
2022/04/19 02:34:19;;;;;;;7.45;2.08;;;;;;;7.83;83.91;99554.94;5041715;28;20033;-72
2022/04/19 02:36:45;;;;;;;2.10;1.90;;;;;;;7.91;84.29;99560.28;5042234;28;20548;-72
2022/04/19 02:39:11;;;;;;;3.35;2.00;;;;;;;7.97;83.75;99556.22;5042049;28;20322;-72
2022/04/19 02:41:37;;;;;;;4.35;2.58;;;;;;;7.94;83.26;99544.16;5041646;28;20037;-72
2022/04/19 02:44:04;;;;;;;7.82;2.83;;;;;;;7.96;82.26;99541.38;5041014;28;20041;-72
2022/04/19 02:46:30;;;;;;;3.30;2.50;;;;;;;8.06;82.15;99557.97;5039769;28;20024;-72
2022/04/19 02:48:57;;;;;;;3.17;2.65;;;;;;;8.06;82.34;99557.13;5041170;28;20041;-73
2022/04/19 02:51:23;;;;;;;4.22;3.00;;;;;;;8.07;82.11;99559.63;5041406;28;20025;-72
2022/04/19 02:53:48;;;;;;;4.10;2.78;;;;;;;8.14;82.47;99562.47;5041144;28;20043;-72
2022/04/19 02:56:14;;;;;;;3.95;2.80;;;;;;;8.12;82.83;99560.00;5040469;28;20033;-72
2022/04/19 02:58:39;;;;;;;3.35;2.75;;;;;;;8.09;82.75;99557.66;5041397;28;20041;-72
2022/04/19 03:01:05;;;;;;;4.60;2.60;;;;;;;7.91;82.68;99536.56;5042561;28;20204;-72
2022/04/19 03:03:30;;;;;;;3.90;2.70;;;;;;;7.98;82.62;99557.88;5040815;28;20136;-72
2022/04/19 03:05:57;;;;;;;6.75;3.08;;;;;;;8.06;82.59;99562.41;5042275;28;20231;-72
2022/04/19 03:08:24;;;;;;;5.03;2.80;;;;;;;8.06;81.95;99555.31;5041371;28;20041;-72
2022/04/19 03:10:50;;;;;;;5.75;2.45;;;;;;;8.16;82.27;99557.88;5040312;28;20049;-72
2022/04/19 03:13:16;;;;;;;4.45;3.08;;;;;;;8.12;82.42;99557.34;5040902;28;20072;-72
2022/04/19 03:15:42;;;;;;;8.73;4.32;;;;;;;8.14;81.66;99565.94;5041457;28;20037;-72
2022/04/19 03:18:07;;;;;;;7.63;2.50;;;;;;;8.18;82.11;99569.09;5041557;28;20478;-72
2022/04/19 03:20:33;;;;;;;4.20;2.50;;;;;;;8.16;82.48;99566.63;5041340;28;20036;-72
2022/04/19 03:28:27;;;;;;;3.70;2.97;;;;;;;8.10;81.17;99571.66;5033437;28;20032;-72
2022/04/19 03:30:52;;;;;;;4.38;2.80;;;;;;;8.15;81.04;99572.06;5040383;28;20030;-72
2022/04/19 03:33:17;;;;;;;2.30;2.10;;;;;;;8.17;80.16;99570.09;5040340;28;20227;-72
2022/04/19 03:35:43;;;;;;;3.67;1.80;;;;;;;8.12;78.91;99572.34;5040889;28;20064;-72
2022/04/19 03:38:09;;;;;;;3.95;1.90;;;;;;;8.10;78.79;99572.50;5039705;28;20338;-72
2022/04/19 03:40:35;;;;;;;2.45;1.88;;;;;;;8.14;79.62;99576.50;5040844;28;20048;-72
2022/04/19 03:43:00;;;;;;;3.53;2.20;;;;;;;8.20;79.64;99575.06;5040727;28;20041;-72
2022/04/19 03:45:26;;;;;;;2.30;2.10;;;;;;;8.16;80.10;99574.53;5040173;28;20315;-72
2022/04/19 03:47:52;;;;;;;8.45;2.40;;;;;;;8.21;80.25;99574.09;5040121;28;20078;-72
2022/04/19 03:50:18;;;;;;;4.32;2.60;;;;;;;8.22;80.12;99573.94;5040521;28;20100;-72
2022/04/19 03:52:44;;;;;;;3.60;2.72;;;;;;;8.24;80.67;99579.06;5039322;28;20029;-72
2022/04/19 03:55:10;;;;;;;3.75;2.90;;;;;;;8.30;81.41;99568.72;5040656;28;20038;-72
2022/04/19 03:57:35;;;;;;;2.88;2.50;;;;;;;8.31;80.57;99575.66;5040108;28;20029;-72
2022/04/19 04:00:01;;;;;;;3.33;2.13;;;;;;;8.23;78.10;99572.94;5040269;28;20029;-72
2022/04/19 04:02:26;;;;;;;2.75;2.40;;;;;;;8.14;78.77;99573.03;5040938;28;20041;-72
2022/04/19 04:04:52;;;;;;;2.83;2.03;;;;;;;7.88;79.30;99563.22;5038469;28;20041;-72
2022/04/19 04:07:18;;;;;;;2.10;1.90;;;;;;;7.74;81.50;99576.91;5039138;28;20033;-72
2022/04/19 04:09:43;;;;;;;4.63;2.10;;;;;;;7.51;81.64;99578.28;5040072;28;20311;-72
2022/04/19 04:12:13;;;;;;;4.80;2.22;;;;;;;7.56;80.75;99576.88;5038499;28;20319;-72
2022/04/19 04:14:43;;;;;;;3.15;2.20;;;;;;;7.79;80.28;99573.81;5039890;28;20393;-72
2022/04/19 04:17:08;;;;;;;5.65;2.28;;;;;;;7.82;79.86;99582.28;5040164;28;20025;-72
2022/04/19 04:19:34;;;;;;;2.47;2.05;;;;;;;7.77;80.42;99586.31;5039642;28;20557;-72
2022/04/19 04:21:59;;;;;;;4.85;2.15;;;;;;;7.90;79.27;99592.06;5039801;28;20212;-72
2022/04/19 04:24:25;;;;;;;3.33;1.88;;;;;;;7.76;78.94;99585.50;5038747;28;20045;-72
2022/04/19 04:26:50;;;;;;;3.10;2.47;;;;;;;7.78;79.87;99591.44;5039689;28;20021;-72
2022/04/19 04:29:16;;;;;;;3.47;2.67;;;;;;;7.84;80.30;99584.75;5039076;28;20071;-72
2022/04/19 04:31:41;;;;;;;4.20;2.65;;;;;;;7.95;80.65;99597.72;5039614;28;20044;-72
2022/04/19 04:34:07;;;;;;;7.18;3.92;;;;;;;7.96;81.30;99596.75;5039800;28;20037;-72
2022/04/19 04:36:33;;;;;;;7.03;3.63;;;;;;;8.16;81.13;99605.34;5037260;28;20033;-72
2022/04/19 04:38:59;;;;;;;5.75;3.38;;;;;;;8.25;79.79;99609.72;5040296;28;20029;-72
2022/04/19 04:41:25;;;;;;;5.53;3.13;;;;;;;8.29;79.55;99604.00;5039609;28;20385;-73
2022/04/19 04:43:50;;;;;;;5.90;2.92;;;;;;;8.32;78.39;99610.78;5039747;28;20026;-72
2022/04/19 04:51:43;;;;;;;8.40;4.00;;;;;;;8.36;80.77;99616.66;5038034;28;20219;-72
2022/04/19 04:54:09;;;;;;;5.85;4.10;;;;;;;8.36;80.68;99609.56;5040324;28;20037;-72
2022/04/19 04:56:34;;;;;;;6.55;4.07;;;;;;;8.42;81.11;99622.16;5037824;28;20021;-73
2022/04/19 04:59:00;;;;;;;6.70;4.15;;;;;;;8.49;80.62;99617.94;5038142;28;20420;-72
2022/04/19 05:01:25;;;;;;;5.35;3.92;;;;;;;8.35;80.84;99623.75;5040380;28;20449;-72
2022/04/19 05:03:51;;;;;;;11.45;3.88;;;;;;;8.28;80.89;99626.09;5039226;28;20037;-72
2022/04/19 05:06:16;;;;;;;6.22;3.92;;;;;;;8.41;81.21;99627.59;5038396;28;20029;-72
2022/04/19 05:08:42;;;;;;;7.63;4.03;;;;;;;8.63;80.75;99622.66;5039212;28;20213;-72
2022/04/19 05:11:07;;;;;;;7.45;4.00;;;;;;;8.68;79.55;99629.28;5039250;28;20093;-72
2022/04/19 05:13:33;;;;;;;7.72;4.45;;;;;;;8.51;79.75;99629.16;5038310;28;20017;-72
2022/04/19 05:15:58;;;;;;;11.75;6.55;;;;;;;8.42;80.16;99621.31;5038062;28;20030;-72
2022/04/19 05:18:24;;;;;;;11.23;6.55;;;;;;;8.48;79.77;99633.91;5037949;28;20025;-72
2022/04/19 05:20:50;;;;;;;13.43;7.00;;;;;;;8.23;80.93;99619.59;5038914;28;20032;-72
2022/04/19 05:23:15;;;;;;;19.75;7.07;;;;;;;8.49;80.79;99619.75;5038923;28;20315;-72
2022/04/19 05:25:41;;;;;;;43.20;11.23;;;;;;;8.46;78.66;99627.97;5038425;28;20227;-72
2022/04/19 05:28:06;;;;;;;23.95;7.95;;;;;;;8.43;78.47;99630.91;5036685;28;20033;-72
2022/04/19 05:30:32;;;;;;;21.92;6.68;;;;;;;8.48;78.00;99633.91;5038591;28;20101;-72
2022/04/19 05:32:58;;;;;;;24.08;6.90;;;;;;;8.56;78.35;99629.53;5038201;28;20028;-72
2022/04/19 05:35:23;;;;;;;16.42;5.53;;;;;;;8.61;79.24;99624.63;5038974;28;20029;-72
2022/04/19 05:37:49;;;;;;;6.85;2.75;;;;;;;8.51;77.29;99615.97;5039892;28;20219;-72
2022/04/19 05:40:14;;;;;;;18.98;6.22;;;;;;;8.28;77.75;99630.53;5039899;28;20204;-72
2022/04/19 05:42:40;;;;;;;8.60;3.50;;;;;;;8.40;78.18;99631.19;5041731;28;20033;-72
2022/04/19 05:45:06;;;;;;;8.80;3.63;;;;;;;8.60;77.01;99630.06;5041658;28;20093;-72
2022/04/19 05:47:33;;;;;;;64.90;11.15;;;;;;;8.52;77.46;99633.47;5041641;28;20092;-72
2022/04/19 05:49:58;;;;;;;94.03;18.50;;;;;;;8.44;79.63;99638.66;5041858;28;20026;-72
2022/04/19 05:52:23;;;;;;;20.75;5.68;;;;;;;8.43;79.59;99628.25;5041777;28;20345;-72
2022/04/19 05:54:49;;;;;;;7.35;3.85;;;;;;;8.35;81.25;99633.47;5041613;28;20044;-72
2022/04/19 05:57:15;;;;;;;12.18;5.65;;;;;;;8.54;79.02;99625.38;5041826;28;20031;-72
2022/04/19 05:59:40;;;;;;;6.28;3.92;;;;;;;8.68;76.50;99626.66;5041808;28;20064;-72
2022/04/19 06:04:53;;;;;;;;;;;;;;;8.48;78.54;99652.38;5040612;28;20052;-72
2022/04/19 06:07:19;;;;;;;5.35;2.90;;;;;;;8.36;77.03;99650.94;5041732;28;19913;-72
2022/04/19 06:09:45;;;;;;;7.43;3.28;;;;;;;8.38;75.32;99643.72;5041715;28;20083;-72
2022/04/19 06:12:10;;;;;;;13.93;5.15;;;;;;;7.98;78.05;99655.44;5041600;28;20029;-72
2022/04/19 06:14:36;;;;;;;6.82;3.70;;;;;;;8.35;78.40;99657.19;5040401;28;20342;-72
2022/04/19 06:17:02;;;;;;;5.30;2.95;;;;;;;8.79;76.72;99653.66;5041426;28;20033;-72
2022/04/19 06:19:27;;;;;;;9.88;4.32;;;;;;;8.98;76.44;99655.28;5040011;28;20029;-72
2022/04/19 06:21:54;;;;;;;7.50;3.25;;;;;;;9.16;73.43;99657.88;5041517;28;20025;-72
2022/04/19 06:24:19;;;;;;;20.20;4.60;;;;;;;9.18;74.78;99650.63;5044736;28;20048;-73
2022/04/19 06:26:44;;;;;;;16.90;4.80;;;;;;;9.21;73.62;99660.88;5044106;28;20345;-72
2022/04/19 06:29:10;;;;;;;5.97;3.20;;;;;;;9.24;72.34;99655.28;5044038;28;20025;-72
2022/04/19 06:31:36;;;;;;;4.38;3.05;;;;;;;9.43;73.24;99660.38;5044153;28;20290;-72
2022/04/19 06:34:01;;;;;;;35.50;7.88;;;;;;;9.42;72.50;99661.38;5041921;28;20104;-72
2022/04/19 06:36:27;;;;;;;7.80;3.67;;;;;;;9.12;73.59;99669.72;5041870;28;20267;-72
2022/04/19 06:38:53;;;;;;;5.78;3.80;;;;;;;9.10;76.68;99669.06;5041745;28;20033;-72
2022/04/19 06:41:18;;;;;;;5.97;4.80;;;;;;;8.36;75.70;99596.38;5042902;28;20026;-72
2022/04/19 06:43:44;;;;;;;10.05;4.05;;;;;;;8.84;75.23;99669.03;5040892;28;20048;-72
2022/04/19 06:46:09;;;;;;;17.77;6.03;;;;;;;8.82;75.18;99669.19;5042003;28;20049;-72
2022/04/19 06:48:35;;;;;;;10.07;4.63;;;;;;;8.56;76.01;99674.41;5041785;28;20101;-72
2022/04/19 06:51:01;;;;;;;11.02;5.03;;;;;;;8.58;76.90;99676.88;5040703;28;20033;-72
2022/04/19 06:53:30;;;;;;;9.80;4.55;;;;;;;8.66;76.14;99662.94;5041769;28;20118;-72
2022/04/19 06:55:56;;;;;;;4.70;3.00;;;;;;;8.79;76.46;99674.78;5040250;28;20029;-73
2022/04/19 06:58:22;;;;;;;4.55;3.22;;;;;;;9.00;74.64;99673.59;5042101;28;20025;-73
2022/04/19 07:00:47;;;;;;;17.42;4.30;;;;;;;9.23;74.01;99683.53;5039647;28;20040;-72
2022/04/19 07:03:13;;;;;;;21.92;9.25;;;;;;;9.00;74.86;99677.06;5039718;28;20033;-72
2022/04/19 07:05:39;;;;;;;4.10;2.83;;;;;;;9.18;72.06;99684.97;5039744;28;20200;-72
2022/04/19 07:08:05;;;;;;;8.90;3.28;;;;;;;9.26;74.31;99683.22;5039081;28;20353;-72
2022/04/19 07:10:31;;;;;;;5.53;2.28;;;;;;;9.25;73.48;99686.00;5039074;28;20036;-72
2022/04/19 07:12:56;;;;;;;7.18;3.45;;;;;;;8.88;72.87;99679.13;5039178;28;20319;-72
2022/04/19 07:15:22;;;;;;;3.53;2.10;;;;;;;8.49;72.67;99680.44;5040412;28;20104;-72
2022/04/19 07:17:47;;;;;;;29.05;6.72;;;;;;;8.61;73.21;99687.97;5038003;28;20025;-72
2022/04/19 07:28:25;;;;;;;;;;;;;;;8.66;75.36;99684.06;5041062;28;20047;-72
2022/04/19 07:30:51;;;;;;;10.15;3.90;;;;;;;8.65;75.81;99688.50;5039042;28;19944;-72
2022/04/19 07:33:16;;;;;;;3.15;2.53;;;;;;;8.61;74.84;99695.91;5040250;28;20021;-72
2022/04/19 07:35:45;;;;;;;3.53;2.50;;;;;;;8.62;75.35;99691.44;5038062;28;20036;-72
2022/04/19 07:38:11;;;;;;;5.43;2.97;;;;;;;8.32;76.83;99682.00;5039701;28;20097;-72
2022/04/19 07:40:37;;;;;;;4.70;2.90;;;;;;;8.41;76.56;99693.53;5039659;28;20061;-72
2022/04/19 07:43:03;;;;;;;7.28;3.50;;;;;;;8.40;76.69;99694.53;5042966;28;20056;-72
2022/04/19 07:45:29;;;;;;;3.25;2.70;;;;;;;8.20;78.01;99693.75;5043132;28;20033;-72
2022/04/19 07:47:55;;;;;;;3.83;2.88;;;;;;;8.03;77.83;99687.47;5042323;28;20037;-72
2022/04/19 07:50:20;;;;;;;3.78;3.10;;;;;;;7.94;77.29;99694.44;5042452;28;20124;-71
2022/04/19 07:52:46;;;;;;;3.40;2.58;;;;;;;8.01;77.43;99692.06;5042649;28;20354;-72
2022/04/19 07:55:11;;;;;;;5.25;3.25;;;;;;;8.14;76.91;99682.00;5042453;28;20037;-72
2022/04/19 07:57:37;;;;;;;5.50;2.90;;;;;;;7.96;78.79;99689.84;5042999;28;20068;-72
2022/04/19 08:00:04;;;;;;;6.43;2.78;;;;;;;7.95;77.90;99690.00;5042824;28;20037;-72
2022/04/19 08:02:30;;;;;;;4.15;3.00;;;;;;;8.14;78.06;99695.19;5041961;28;20065;-72
2022/04/19 08:04:56;;;;;;;4.72;2.92;;;;;;;7.92;78.31;99693.75;5041995;28;20041;-72
2022/04/19 08:07:22;;;;;;;5.85;2.90;;;;;;;7.79;79.60;99682.72;5042382;28;20033;-72
2022/04/19 08:09:47;;;;;;;4.00;3.17;;;;;;;7.80;79.08;99694.09;5042365;28;20044;-71
2022/04/19 08:12:13;;;;;;;4.03;2.85;;;;;;;7.79;80.40;99692.44;5039746;28;20096;-72
2022/04/19 08:14:41;;;;;;;4.43;3.28;;;;;;;7.57;81.30;99691.84;5042319;28;20061;-72
2022/04/19 08:17:07;;;;;;;5.03;3.30;;;;;;;7.55;81.04;99699.06;5042246;28;20032;-72
2022/04/19 08:19:33;;;;;;;3.80;2.95;;;;;;;7.79;79.65;99697.72;5042116;28;20057;-72
2022/04/19 08:21:58;;;;;;;5.03;3.35;;;;;;;7.74;79.70;99694.69;5042050;28;20056;-72
2022/04/19 08:24:24;;;;;;;3.97;3.05;;;;;;;7.96;79.29;99694.31;5042043;28;20037;-72
2022/04/19 08:26:51;;;;;;;4.53;3.08;;;;;;;7.97;78.43;99696.78;5041958;28;20056;-72
2022/04/19 08:29:16;;;;;;;6.50;3.30;;;;;;;8.20;78.74;99693.75;5042206;28;20041;-72
2022/04/19 08:31:41;;;;;;;5.47;3.30;;;;;;;8.42;78.58;99696.03;5041974;28;20033;-72
2022/04/19 08:34:07;;;;;;;4.78;3.20;;;;;;;8.43;76.97;99702.13;5041641;28;20033;-72
2022/04/19 08:36:34;;;;;;;27.90;7.22;;;;;;;8.46;77.77;99680.72;5041996;28;20234;-72
2022/04/19 08:39:00;;;;;;;7.30;3.17;;;;;;;8.75;75.92;99689.25;5041816;28;20061;-72
2022/04/19 08:41:25;;;;;;;5.63;3.08;;;;;;;9.01;74.50;99693.75;5041741;28;20148;-72
2022/04/19 08:43:52;;;;;;;4.85;2.90;;;;;;;8.98;74.89;99684.31;5041585;28;20353;-72
2022/04/19 08:46:18;;;;;;;4.55;3.15;;;;;;;9.69;74.74;99683.31;5041681;28;20029;-72
2022/04/19 08:48:44;;;;;;;5.30;3.63;;;;;;;10.16;71.60;99688.97;5040521;28;20037;-72
2022/04/19 08:51:11;;;;;;;5.03;3.03;;;;;;;10.42;70.80;99686.28;5041692;28;20060;-72
2022/04/19 08:59:06;;;;;;;22.30;6.40;;;;;;;10.44;73.54;99677.19;5036593;28;20525;-72
2022/04/19 09:01:32;;;;;;;7.68;4.63;;;;;;;10.78;74.22;99677.06;5036200;28;20226;-72
2022/04/19 09:03:57;;;;;;;4.82;3.85;;;;;;;11.25;75.60;99679.03;5036932;28;20337;-72
2022/04/19 09:06:50;;;;;;;4.53;3.45;;;;;;;11.79;69.09;99679.28;5035880;28;20109;-72
2022/04/19 09:09:19;;;;;;;6.20;3.70;;;;;;;11.93;66.16;99675.06;5029281;28;20037;-72
2022/04/19 09:11:45;;;;;;;4.28;3.60;;;;;;;12.08;66.03;99663.56;5035577;28;20041;-72
2022/04/19 09:14:10;;;;;;;6.97;3.80;;;;;;;12.17;68.39;99669.66;5036180;28;20033;-72
2022/04/19 09:16:36;;;;;;;5.45;3.50;;;;;;;12.73;65.55;99665.00;5037415;28;20311;-72
2022/04/19 09:19:01;;;;;;;4.35;3.72;;;;;;;12.49;69.44;99665.19;5034358;28;20075;-72
2022/04/19 09:21:38;;;;;;;5.97;3.33;;;;;;;12.30;64.68;99669.91;5037282;28;20025;-72
2022/04/19 09:24:21;;;;;;;4.78;2.95;;;;;;;11.97;64.87;99657.81;5037193;28;20045;-72
2022/04/19 09:26:48;;;;;;;12.95;4.93;;;;;;;11.33;66.28;99662.28;5036972;28;20080;-72
2022/04/19 09:29:21;;;;;;;3.53;3.08;;;;;;;10.93;65.43;99665.81;5035859;28;20029;-73
2022/04/19 09:31:50;;;;;;;4.80;3.50;;;;;;;10.84;66.34;99664.97;5037537;28;20040;-72
2022/04/19 09:34:36;;;;;;;16.90;6.60;;;;;;;10.82;68.23;99649.25;5035828;28;20041;-72
2022/04/19 09:37:12;;;;;;;6.82;4.03;;;;;;;10.90;68.30;99661.66;5036673;28;20037;-72
2022/04/19 09:39:39;;;;;;;23.85;7.10;;;;;;;10.93;68.32;99663.16;5034193;28;20029;-72
2022/04/19 09:42:05;;;;;;;11.10;4.50;;;;;;;11.00;71.55;99662.31;5036107;28;20104;-72
2022/04/19 09:44:37;;;;;;;6.13;3.35;;;;;;;11.31;64.77;99667.75;5033943;28;20079;-72
2022/04/19 09:47:10;;;;;;;4.55;3.30;;;;;;;11.19;63.88;99667.25;5034482;28;20025;-72
2022/04/19 09:49:53;;;;;;;19.25;4.57;;;;;;;11.15;64.13;99657.16;5036408;28;20049;-72
2022/04/19 09:52:24;;;;;;;7.05;2.95;;;;;;;11.02;63.75;99665.63;5035964;28;20033;-72
2022/04/19 09:55:19;;;;;;;15.75;4.72;;;;;;;11.05;65.90;99661.81;5033813;28;20057;-71
2022/04/19 09:57:45;;;;;;;;;;;;;;;11.17;68.41;99658.66;5029228;28;20331;-71
2022/04/19 10:00:13;;;;;;;14.27;4.40;;;;;;;11.02;68.65;99662.97;5039482;28;19920;-71
2022/04/19 10:08:23;;;;;;;10.27;4.32;;;;;;;11.35;69.85;99642.56;5040379;28;20231;-72
2022/04/19 10:10:51;;;;;;;12.98;5.00;;;;;;;11.51;65.54;99645.19;5037963;28;20037;-73
2022/04/19 10:13:18;;;;;;;6.22;3.28;;;;;;;11.42;63.27;99638.22;5038905;28;20037;-72
2022/04/19 10:15:44;;;;;;;8.45;3.92;;;;;;;11.65;60.19;99642.81;5039735;28;20037;-71
2022/04/19 10:18:10;;;;;;;6.32;3.10;;;;;;;11.75;61.99;99644.28;5039029;28;20055;-71
2022/04/19 10:20:46;;;;;;;5.07;3.17;;;;;;;11.86;60.38;99644.94;5040125;28;20030;-71
2022/04/19 10:23:12;;;;;;;5.47;3.13;;;;;;;11.80;61.87;99633.19;5040193;28;20044;-72
2022/04/19 10:25:44;;;;;;;7.32;4.57;;;;;;;11.47;66.12;99632.44;5039047;28;20041;-71
2022/04/19 10:28:15;;;;;;;6.75;3.17;;;;;;;11.57;61.57;99641.03;5040472;28;20104;-71
2022/04/19 10:30:51;;;;;;;7.90;3.38;;;;;;;11.65;64.23;99630.41;5037536;28;20030;-71
2022/04/19 10:33:41;;;;;;;3.50;2.20;;;;;;;12.01;56.08;99632.59;5039763;28;20234;-71
2022/04/19 10:36:20;;;;;;;54.35;9.32;;;;;;;11.49;58.94;99633.94;5039539;28;20048;-72
2022/04/19 10:38:47;;;;;;;2.78;2.15;;;;;;;11.26;60.56;99626.84;5040260;28;20091;-72
2022/04/19 10:41:56;;;;;;;7.03;3.35;;;;;;;11.52;63.14;99630.94;5039020;28;20041;-72
2022/04/19 10:44:23;;;;;;;4.45;4.05;;;;;;;11.74;60.83;99620.56;5039242;28;20323;-72
2022/04/19 10:47:23;;;;;;;5.20;2.40;;;;;;;11.95;59.81;99627.97;5039790;28;20346;-72
2022/04/19 10:49:50;;;;;;;3.30;2.60;;;;;;;11.78;57.91;99620.09;5038851;28;20033;-73
2022/04/19 10:52:37;;;;;;;5.57;2.60;;;;;;;12.03;59.08;99619.97;5039501;28;20414;-71
2022/04/19 10:55:09;;;;;;;5.03;2.85;;;;;;;11.88;58.64;99616.41;5038093;28;20108;-72
2022/04/19 11:00:30;;;;;;;3.40;2.47;;;;;;;12.07;62.99;99608.00;5037894;28;20282;-72
2022/04/19 11:03:02;;;;;;;7.88;3.15;;;;;;;12.08;61.71;99596.38;5037253;28;20025;-72
2022/04/19 11:05:44;;;;;;;5.03;2.78;;;;;;;12.27;56.78;99613.69;5033897;28;20041;-72
2022/04/19 11:08:35;;;;;;;5.40;3.20;;;;;;;12.30;57.20;99613.34;5038347;28;20029;-72
2022/04/19 11:11:06;;;;;;;5.60;2.95;;;;;;;12.06;57.96;99609.81;5037887;28;20116;-72
2022/04/19 11:13:35;;;;;;;5.00;2.78;;;;;;;11.86;55.69;99611.25;5036712;28;20321;-71
2022/04/19 11:16:03;;;;;;;3.85;2.85;;;;;;;11.53;55.57;99615.84;5036916;28;20358;-71
2022/04/19 11:18:52;;;;;;;3.80;2.55;;;;;;;11.70;57.88;99609.50;5038567;28;20052;-71
2022/04/19 11:21:52;;;;;;;3.65;2.58;;;;;;;11.53;59.30;99618.50;5038116;28;20124;-72
2022/04/19 11:24:56;;;;;;;4.40;3.67;;;;;;;11.32;62.87;99611.09;5037489;28;20036;-71
2022/04/19 11:27:22;;;;;;;5.15;2.78;;;;;;;11.54;57.29;99608.72;5039005;28;20084;-71
2022/04/19 11:29:49;;;;;;;5.72;2.65;;;;;;;11.65;57.42;99603.88;5037822;28;20331;-71
2022/04/19 11:32:22;;;;;;;4.15;2.72;;;;;;;11.82;56.46;99607.31;5039527;28;20331;-71
2022/04/19 11:35:04;;;;;;;5.95;3.47;;;;;;;11.68;62.02;99600.88;5037422;28;20025;-71
2022/04/19 11:37:31;;;;;;;3.63;2.75;;;;;;;11.23;64.14;99593.53;5037452;28;20037;-71
2022/04/19 11:48:30;;;;;;;6.10;2.25;;;;;;;11.02;57.52;99609.16;5037141;28;20045;-72
2022/04/19 11:51:08;;;;;;;4.68;3.00;;;;;;;11.27;57.55;99617.88;5038072;28;20037;-72
2022/04/19 11:53:34;;;;;;;3.42;2.60;;;;;;;11.47;58.28;99604.09;5036649;28;20315;-71
2022/04/19 11:56:01;;;;;;;2.80;2.22;;;;;;;11.80;59.68;99606.66;5036680;28;20044;-71
2022/04/19 11:58:27;;;;;;;3.15;2.20;;;;;;;11.77;59.00;99604.31;5042641;28;20040;-71
2022/04/19 12:01:04;;;;;;;2.95;2.33;;;;;;;11.70;57.14;99603.34;5042446;28;20238;-72
2022/04/19 12:03:32;;;;;;;3.45;2.58;;;;;;;11.58;58.27;99602.91;5042031;28;20029;-71
2022/04/19 12:06:15;;;;;;;2.83;2.53;;;;;;;11.66;57.12;99607.34;5042064;28;20317;-71
2022/04/19 12:08:43;;;;;;;3.85;2.75;;;;;;;11.79;56.13;99602.34;5042116;28;20234;-71
2022/04/19 12:11:24;;;;;;;4.03;2.67;;;;;;;11.47;65.89;99606.75;5042055;28;20033;-72
2022/04/19 12:13:50;;;;;;;5.05;2.60;;;;;;;11.09;65.94;99605.66;5042279;28;20104;-71
2022/04/19 12:16:35;;;;;;;3.63;2.30;;;;;;;10.79;63.99;99606.38;5042554;28;20040;-72
2022/04/19 12:19:08;;;;;;;8.70;2.72;;;;;;;10.84;63.78;99604.06;5041006;28;20037;-71
2022/04/19 12:21:39;;;;;;;2.95;2.38;;;;;;;10.82;63.93;99598.09;5041901;28;20065;-71
2022/04/19 12:24:19;;;;;;;3.08;2.30;;;;;;;10.67;63.03;99602.41;5042027;28;20046;-71
2022/04/19 12:26:49;;;;;;;3.60;2.40;;;;;;;10.85;64.80;99603.06;5042038;28;20056;-71